Time;durP1;ratioP1;P1;durP2;ratioP2;P2;SDS_P1;SDS_P2;PMS_P1;PMS_P2;Temp;Humidity;BMP_temperature;BMP_pressure;BME280_temperature;BME280_humidity;BME280_pressure;Samples;Min_cycle;Max_cycle;Signal;HPM_P1;HPM_P2
2022/04/08 00:03:21;;;;;;;2.17;0.80;;;;;;;8.84;74.16;97614.05;2910875;81;21035;-82
2022/04/08 00:07:22;;;;;;;4.10;1.02;;;;;;;8.92;73.87;97613.15;2892361;80;21021;-82
2022/04/08 00:11:24;;;;;;;1.62;0.80;;;;;;;8.93;72.80;97614.80;2919107;81;20984;-82
2022/04/08 00:15:25;;;;;;;3.47;0.75;;;;;;;9.00;73.25;97615.70;2933275;81;21000;-82
2022/04/08 00:19:27;;;;;;;2.60;1.20;;;;;;;9.00;73.55;97626.31;2912910;81;21079;-82
2022/04/08 00:23:28;;;;;;;2.92;1.05;;;;;;;8.97;74.13;97633.30;2933941;81;21148;-82
2022/04/08 00:27:29;;;;;;;0.53;0.50;;;;;;;8.86;74.04;97620.50;2913864;80;21066;-82
2022/04/08 00:31:30;;;;;;;0.80;0.78;;;;;;;8.82;74.24;97631.13;2934323;80;21023;-82
2022/04/08 00:35:32;;;;;;;2.70;1.52;;;;;;;8.74;74.38;97635.19;2921931;79;21634;-82
2022/04/08 00:39:33;;;;;;;2.95;0.78;;;;;;;8.65;74.64;97626.00;2921577;80;21022;-83
2022/04/08 00:43:37;;;;;;;3.65;1.35;;;;;;;8.58;74.32;97613.13;2934587;79;21069;-82
2022/04/08 00:47:41;;;;;;;2.98;1.30;;;;;;;8.59;75.09;97619.26;2932537;80;21018;-82
2022/04/08 00:51:42;;;;;;;1.40;0.60;;;;;;;8.46;75.75;97609.23;2926027;80;21074;-81
2022/04/08 00:55:43;;;;;;;4.08;1.60;;;;;;;8.41;76.30;97625.14;2961445;80;20998;-82
2022/04/08 00:59:44;;;;;;;7.22;0.90;;;;;;;8.35;76.53;97608.64;2956772;80;21113;-82
2022/04/08 01:03:46;;;;;;;4.58;1.05;;;;;;;8.28;76.28;97593.95;2957248;80;21066;-82
2022/04/08 01:07:47;;;;;;;2.33;1.37;;;;;;;8.27;75.95;97618.80;2957347;80;21010;-82
2022/04/08 01:11:49;;;;;;;3.55;0.93;;;;;;;8.26;76.13;97621.12;2956557;80;21010;-82
2022/04/08 01:15:50;;;;;;;3.08;1.22;;;;;;;8.18;75.91;97623.84;2956912;80;21046;-82
2022/04/08 01:19:51;;;;;;;4.28;1.12;;;;;;;8.11;76.23;97636.95;2964163;80;21022;-82
2022/04/08 01:23:56;;;;;;;2.55;1.02;;;;;;;8.15;75.99;97611.77;2950323;79;21022;-82
2022/04/08 01:27:57;;;;;;;9.50;2.10;;;;;;;8.09;74.80;97616.45;2952916;80;20998;-82
2022/04/08 01:31:58;;;;;;;2.02;1.45;;;;;;;8.13;74.52;97624.36;2944128;80;21077;-82
2022/04/08 01:35:59;;;;;;;1.95;1.22;;;;;;;8.11;74.00;97643.56;2954420;80;20960;-82
2022/04/08 01:40:00;;;;;;;7.42;2.40;;;;;;;8.12;73.89;97634.62;2941368;80;21117;-82
2022/04/08 01:44:02;;;;;;;4.75;2.08;;;;;;;8.14;73.57;97644.53;2950518;80;21054;-82
2022/04/08 01:48:04;;;;;;;3.65;1.87;;;;;;;8.13;73.14;97637.59;2935487;79;20991;-82
2022/04/08 01:52:06;;;;;;;1.32;0.98;;;;;;;8.14;72.45;97643.70;2955397;80;21554;-82
2022/04/08 01:56:07;;;;;;;4.90;2.20;;;;;;;8.22;71.91;97640.17;2945631;80;20999;-82
2022/04/08 02:00:10;;;;;;;4.00;1.90;;;;;;;8.28;71.32;97655.38;2917772;80;21043;-82
2022/04/08 02:04:11;;;;;;;1.60;1.00;;;;;;;8.31;71.02;97664.30;2949652;80;21089;-82
2022/04/08 02:08:12;;;;;;;4.30;1.55;;;;;;;8.31;70.59;97668.76;2912423;80;21400;-82
2022/04/08 02:12:13;;;;;;;5.58;1.80;;;;;;;8.29;69.87;97671.59;2936078;80;21637;-82
2022/04/08 02:16:15;;;;;;;10.28;1.40;;;;;;;8.32;69.84;97687.62;2954766;80;21527;-82
2022/04/08 02:20:16;;;;;;;3.50;1.62;;;;;;;8.33;69.35;97683.48;2928932;80;21455;-81
2022/04/08 02:24:18;;;;;;;3.45;1.70;;;;;;;8.38;68.94;97690.91;2944491;80;21011;-82
2022/04/08 02:28:19;;;;;;;2.30;1.02;;;;;;;8.47;68.73;97699.63;2915652;80;21042;-82
2022/04/08 02:32:20;;;;;;;2.58;1.10;;;;;;;8.48;68.37;97688.03;2934324;80;21030;-82
2022/04/08 02:36:21;;;;;;;3.02;1.22;;;;;;;8.49;68.12;97698.44;2914198;80;21344;-82
2022/04/08 02:40:22;;;;;;;1.87;0.70;;;;;;;8.50;68.15;97700.11;2920289;80;21007;-82
2022/04/08 02:44:24;;;;;;;3.85;1.32;;;;;;;8.52;66.89;97692.00;2907638;80;20995;-82
2022/04/08 02:48:25;;;;;;;6.00;1.60;;;;;;;8.67;65.34;97704.81;2901987;81;21297;-82
2022/04/08 02:52:26;;;;;;;10.32;1.85;;;;;;;8.84;63.91;97691.41;2929435;80;21031;-82
2022/04/08 02:56:27;;;;;;;1.25;1.02;;;;;;;8.96;64.96;97691.83;2922821;81;21112;-82
2022/04/08 03:00:29;;;;;;;9.05;2.12;;;;;;;9.06;64.32;97707.48;2910176;81;21122;-82
2022/04/08 03:04:30;;;;;;;5.12;1.50;;;;;;;9.07;63.62;97713.11;2903289;80;20984;-82
2022/04/08 03:08:31;;;;;;;2.35;0.98;;;;;;;9.08;63.89;97715.56;2906109;81;21050;-81
2022/04/08 03:12:33;;;;;;;2.77;1.20;;;;;;;9.12;62.74;97710.22;2935812;79;20980;-81
2022/04/08 03:16:34;;;;;;;14.90;1.45;;;;;;;9.14;62.51;97714.87;2925020;80;21366;-82
2022/04/08 03:20:35;;;;;;;3.02;1.20;;;;;;;9.19;61.63;97712.17;2913000;81;21090;-81
2022/04/08 03:24:36;;;;;;;6.40;1.67;;;;;;;9.26;62.25;97744.44;2927883;80;21023;-82
2022/04/08 03:28:37;;;;;;;4.50;1.62;;;;;;;9.19;63.19;97744.00;2913495;80;21429;-81
2022/04/08 03:32:38;;;;;;;2.83;1.12;;;;;;;9.13;61.95;97738.91;2908770;80;21031;-81
2022/04/08 03:36:40;;;;;;;2.05;1.30;;;;;;;9.15;62.15;97739.55;2940846;80;21038;-82
2022/04/08 03:40:41;;;;;;;1.82;1.02;;;;;;;9.24;63.14;97779.60;2932373;80;21061;-81
2022/04/08 03:44:42;;;;;;;12.07;2.40;;;;;;;9.17;63.02;97769.89;2926526;80;21006;-82
2022/04/08 03:48:45;;;;;;;6.90;1.67;;;;;;;9.13;62.99;97789.30;2892648;80;21082;-81
2022/04/08 03:52:46;;;;;;;3.15;1.40;;;;;;;9.12;63.41;97787.65;2925053;79;21491;-82
2022/04/08 03:56:47;;;;;;;3.87;1.30;;;;;;;9.14;63.46;97786.97;2953221;79;21036;-81
2022/04/08 04:00:49;;;;;;;7.25;1.05;;;;;;;9.11;63.44;97800.59;2952014;80;21077;-81
2022/04/08 04:04:50;;;;;;;2.85;1.62;;;;;;;9.05;64.31;97814.56;2928748;80;21304;-82
2022/04/08 04:08:51;;;;;;;11.35;1.67;;;;;;;9.02;63.66;97801.63;2922150;80;21023;-83
2022/04/08 04:12:53;;;;;;;3.42;1.32;;;;;;;9.07;64.01;97835.91;2944703;80;21011;-81
2022/04/08 04:16:55;;;;;;;2.52;1.25;;;;;;;9.06;64.68;97821.52;2930500;79;20988;-81
2022/04/08 04:20:56;;;;;;;2.45;1.20;;;;;;;9.06;64.82;97840.08;2909867;80;21039;-81
2022/04/08 04:24:57;;;;;;;1.95;0.90;;;;;;;9.05;65.08;97854.34;2949866;80;21542;-81
2022/04/08 04:28:58;;;;;;;4.75;1.52;;;;;;;9.08;66.12;97873.87;2917425;80;21058;-81
2022/04/08 04:33:00;;;;;;;1.52;0.93;;;;;;;9.03;65.79;97860.30;2949533;79;21011;-81
2022/04/08 04:37:02;;;;;;;2.65;0.95;;;;;;;8.96;66.04;97878.75;2920757;80;21070;-81
2022/04/08 04:41:03;;;;;;;5.67;2.17;;;;;;;9.02;66.41;97870.58;2958904;80;21050;-81
2022/04/08 04:45:06;;;;;;;6.35;1.35;;;;;;;9.04;65.83;97878.70;2948037;80;21031;-81
2022/04/08 04:49:07;;;;;;;2.37;1.20;;;;;;;9.57;64.69;97876.16;2929374;80;21006;-80
2022/04/08 04:53:08;;;;;;;4.08;0.82;;;;;;;9.95;64.26;97901.05;2930365;80;21000;-81
2022/04/08 04:57:09;;;;;;;2.98;1.30;;;;;;;10.18;62.98;97885.55;2955740;80;21050;-80
2022/04/08 05:01:10;;;;;;;1.98;1.30;;;;;;;10.39;61.83;97902.92;2954507;80;21026;-81
2022/04/08 05:05:11;;;;;;;2.25;0.93;;;;;;;10.63;61.55;97911.67;2961292;80;21078;-81
2022/04/08 05:09:12;;;;;;;1.98;1.00;;;;;;;10.71;61.74;97910.23;2921973;80;21007;-80
2022/04/08 05:13:14;;;;;;;1.45;1.25;;;;;;;10.99;60.92;97910.86;2954113;79;21537;-81
2022/04/08 05:17:15;;;;;;;5.42;1.35;;;;;;;11.26;60.66;97933.80;2924539;79;21023;-80
2022/04/08 05:21:16;;;;;;;3.17;1.40;;;;;;;10.80;60.91;97930.90;2951533;80;21058;-81
2022/04/08 05:25:17;;;;;;;3.33;1.52;;;;;;;10.34;62.51;97935.87;2943831;80;20968;-80
2022/04/08 05:29:18;;;;;;;2.22;1.30;;;;;;;10.09;63.36;97951.22;2918580;80;21007;-80
2022/04/08 05:33:20;;;;;;;1.62;1.02;;;;;;;9.83;63.92;97949.30;2951396;80;21055;-80
2022/04/08 05:37:21;;;;;;;6.65;1.42;;;;;;;9.77;64.88;97971.23;2958911;80;21061;-80
2022/04/08 05:41:22;;;;;;;5.45;1.77;;;;;;;9.83;65.02;97982.98;2922120;80;21074;-80
2022/04/08 05:45:23;;;;;;;2.42;1.47;;;;;;;9.75;64.84;97991.83;2943334;80;21441;-80
2022/04/08 05:49:24;;;;;;;3.83;1.57;;;;;;;9.69;65.29;97996.52;2925928;80;21058;-81
2022/04/08 05:53:26;;;;;;;3.37;2.27;;;;;;;9.85;65.21;97999.06;2953227;80;20998;-80
2022/04/08 05:57:29;;;;;;;3.72;2.10;;;;;;;9.93;64.77;98025.22;2953665;80;21007;-81
2022/04/08 06:01:30;;;;;;;1.87;1.30;;;;;;;9.82;65.42;98027.80;2930552;80;21026;-80
2022/04/08 06:05:31;;;;;;;3.08;1.57;;;;;;;9.93;65.32;98011.95;2953179;80;21550;-79
2022/04/08 06:09:34;;;;;;;1.90;1.52;;;;;;;10.47;64.37;98043.42;2912771;80;20991;-80
2022/04/08 06:13:35;;;;;;;4.40;1.22;;;;;;;10.95;63.23;98024.48;2948824;80;20995;-80
2022/04/08 06:17:38;;;;;;;3.50;0.95;;;;;;;11.44;62.64;98057.66;2928270;80;21031;-80
2022/04/08 06:21:39;;;;;;;3.12;1.52;;;;;;;11.44;60.35;98065.64;2951796;80;21031;-80
2022/04/08 06:25:40;;;;;;;2.08;1.02;;;;;;;11.24;63.08;98078.69;2961205;80;21022;-80
2022/04/08 06:29:41;;;;;;;1.80;0.95;;;;;;;10.69;61.65;98067.80;2953212;80;21030;-80
2022/04/08 06:33:42;;;;;;;2.08;1.22;;;;;;;10.46;63.66;98093.60;2955398;80;21046;-80
2022/04/08 06:37:44;;;;;;;1.82;1.45;;;;;;;10.28;63.53;98110.64;2921558;80;21029;-80
2022/04/08 06:41:45;;;;;;;2.70;1.42;;;;;;;10.18;66.20;98113.53;2920184;81;21619;-80
2022/04/08 06:45:46;;;;;;;3.47;1.72;;;;;;;10.11;63.28;98088.17;2925156;81;21031;-80
2022/04/08 06:49:47;;;;;;;3.70;1.25;;;;;;;10.28;64.38;98126.59;2913055;81;21050;-81
2022/04/08 06:53:48;;;;;;;4.05;1.02;;;;;;;10.28;63.34;98101.34;2934213;80;21044;-80
2022/04/08 06:57:49;;;;;;;2.85;1.47;;;;;;;10.31;64.04;98129.38;2920437;80;21054;-80
2022/04/08 07:01:50;;;;;;;3.83;1.47;;;;;;;10.14;64.54;98121.02;2829253;83;21561;-80
2022/04/08 07:05:51;;;;;;;1.65;1.20;;;;;;;10.19;65.65;98135.12;2908238;81;21086;-80
2022/04/08 07:09:52;;;;;;;3.33;0.95;;;;;;;10.61;64.77;98146.31;2928637;81;21011;-80
2022/04/08 07:13:54;;;;;;;2.12;1.17;;;;;;;11.04;65.34;98144.94;2917524;80;20984;-80
2022/04/08 07:17:56;;;;;;;4.55;2.08;;;;;;;10.87;62.22;98169.02;2925642;81;21027;-80
2022/04/08 07:21:57;;;;;;;4.83;1.30;;;;;;;11.19;63.01;98161.72;2935046;80;20995;-81
2022/04/08 07:25:58;;;;;;;1.82;0.95;;;;;;;11.34;62.79;98166.23;2893489;81;21043;-81
2022/04/08 07:30:00;;;;;;;1.15;0.93;;;;;;;11.00;62.38;98160.42;2920135;81;21048;-81
2022/04/08 07:34:01;;;;;;;2.10;1.02;;;;;;;10.70;63.39;98190.43;2918201;81;21006;-81
2022/04/08 07:38:03;;;;;;;1.35;1.02;;;;;;;10.57;64.25;98203.48;2947265;80;21074;-80
2022/04/08 07:42:05;;;;;;;2.98;1.60;;;;;;;10.58;65.82;98215.77;2851026;82;21042;-80
2022/04/08 07:46:06;;;;;;;1.67;0.90;;;;;;;10.71;66.09;98199.25;2855778;82;20994;-80
2022/04/08 07:50:12;;;;;;;1.37;0.70;;;;;;;10.98;63.35;98211.13;2872993;82;20971;-81
2022/04/08 07:54:13;;;;;;;1.65;0.80;;;;;;;11.31;65.51;98227.82;2870387;81;21089;-81
2022/04/08 07:58:15;;;;;;;2.37;1.25;;;;;;;11.31;63.78;98231.81;2904687;81;21058;-80
2022/04/08 08:02:16;;;;;;;1.15;1.12;;;;;;;11.11;64.52;98232.33;2901802;81;21059;-80
2022/04/08 08:06:17;;;;;;;0.90;0.70;;;;;;;10.91;66.02;98223.52;2900071;81;21015;-80
2022/04/08 08:10:22;;;;;;;1.57;0.90;;;;;;;10.82;64.47;98245.88;2896048;81;21098;-80
2022/04/08 08:14:23;;;;;;;1.70;0.70;;;;;;;10.58;64.79;98249.00;2893260;81;21645;-80
2022/04/08 08:18:25;;;;;;;3.70;1.20;;;;;;;10.46;63.94;98238.46;2897106;81;21011;-80
2022/04/08 08:22:26;;;;;;;1.30;1.02;;;;;;;10.36;64.37;98247.44;2902882;81;21531;-80
2022/04/08 08:26:27;;;;;;;1.72;0.90;;;;;;;10.61;66.91;98281.06;2900964;81;20980;-80
2022/04/08 08:30:30;;;;;;;4.50;1.02;;;;;;;10.46;64.38;98254.41;2903386;81;20999;-81
2022/04/08 08:34:31;;;;;;;4.78;1.05;;;;;;;9.89;71.32;98353.22;2903161;81;21054;-81
2022/04/08 08:38:33;;;;;;;2.87;1.85;;;;;;;9.06;76.13;98354.58;2915442;81;21026;-80
2022/04/08 08:42:38;;;;;;;4.33;2.87;;;;;;;8.77;78.17;98351.84;2955749;80;20987;-81
2022/04/08 08:46:40;;;;;;;2.50;1.42;;;;;;;8.88;78.75;98361.32;2936665;80;20986;-80
2022/04/08 08:50:48;;;;;;;1.80;1.32;;;;;;;9.34;79.85;98362.22;2959622;80;21665;-81
2022/04/08 08:54:51;;;;;;;1.57;1.35;;;;;;;9.56;77.72;98368.19;2922770;80;21062;-80
2022/04/08 08:58:52;;;;;;;2.30;1.52;;;;;;;9.50;77.58;98375.50;2935399;80;21074;-81
2022/04/08 09:02:53;;;;;;;1.65;1.17;;;;;;;9.53;77.56;98372.50;2951041;80;22125;-81
2022/04/08 09:06:54;;;;;;;1.25;1.05;;;;;;;9.69;77.93;98380.95;2948584;80;21569;-81
2022/04/08 09:10:55;;;;;;;1.67;1.57;;;;;;;9.95;76.82;98383.08;2961775;80;20991;-81
2022/04/08 09:15:00;;;;;;;3.47;1.62;;;;;;;10.24;75.21;98388.35;2958220;80;21145;-81
2022/04/08 09:19:14;;;;;;;2.55;1.65;;;;;;;10.38;75.08;98384.96;2949641;80;21054;-81
2022/04/08 09:23:19;;;;;;;1.52;0.93;;;;;;;10.36;76.08;98396.27;2937437;80;20983;-81
2022/04/08 09:27:21;;;;;;;3.45;1.82;;;;;;;10.35;73.56;98390.63;2944153;79;21078;-81
2022/04/08 09:31:22;;;;;;;2.55;1.52;;;;;;;10.35;72.07;98404.43;2954646;80;21003;-81
2022/04/08 09:35:27;;;;;;;4.55;1.95;;;;;;;10.36;73.23;98410.88;2954958;80;20979;-81
2022/04/08 09:39:28;;;;;;;3.47;2.22;;;;;;;10.37;73.33;98402.42;2953112;80;21042;-80
2022/04/08 09:43:34;;;;;;;11.53;7.08;;;;;;;10.43;73.72;98414.57;2955082;80;21017;-81
2022/04/08 09:47:37;;;;;;;5.47;3.20;;;;;;;10.78;75.01;98407.61;2930788;80;20991;-80
2022/04/08 09:51:40;;;;;;;4.75;3.52;;;;;;;10.90;73.37;98415.19;2944826;80;21062;-81
2022/04/08 09:55:43;;;;;;;3.47;3.17;;;;;;;10.85;71.90;98419.72;2957548;80;21014;-81
2022/04/08 09:59:47;;;;;;;3.17;2.98;;;;;;;10.87;73.19;98413.73;2957025;80;21538;-80
2022/04/08 10:03:49;;;;;;;4.67;2.98;;;;;;;10.95;73.77;98405.69;2946777;80;21062;-81
2022/04/08 10:07:53;;;;;;;3.30;2.95;;;;;;;11.17;74.52;98401.91;2911281;80;21027;-81
2022/04/08 10:12:03;;;;;;;4.62;4.22;;;;;;;11.00;73.49;98435.28;2947866;79;21019;-81
2022/04/08 10:16:22;;;;;;;6.12;4.70;;;;;;;10.76;73.23;98420.26;2941093;80;21003;-81
2022/04/08 10:20:24;;;;;;;3.67;2.70;;;;;;;10.62;75.33;98423.15;2937384;80;20987;-81
2022/04/08 10:24:31;;;;;;;2.80;2.55;;;;;;;10.51;72.86;98422.17;2941308;79;31940;-81
2022/04/08 10:28:36;;;;;;;5.15;4.75;;;;;;;10.66;72.50;98412.48;2955319;80;21564;-81
2022/04/08 10:32:38;;;;;;;8.03;2.17;;;;;;;10.94;71.93;98412.02;2953451;80;21065;-81
2022/04/08 10:36:43;;;;;;;4.17;1.70;;;;;;;11.22;70.29;98414.20;2944796;80;21091;-80
2022/04/08 10:40:55;;;;;;;1.37;1.22;;;;;;;11.29;66.74;98399.17;2934326;80;21054;-81
2022/04/08 10:44:57;;;;;;;1.50;0.88;;;;;;;11.34;63.87;98401.31;2956747;80;21029;-81
2022/04/08 10:48:59;;;;;;;0.70;0.47;;;;;;;11.47;61.47;98382.08;2907413;80;21063;-80
2022/04/08 10:53:10;;;;;;;1.50;0.37;;;;;;;11.58;60.73;98380.83;2938467;80;21015;-81
2022/04/08 10:57:11;;;;;;;1.95;0.70;;;;;;;12.11;60.49;98378.72;2918885;80;20982;-80
2022/04/08 11:01:17;;;;;;;1.02;0.80;;;;;;;12.57;57.95;98368.34;2923561;80;20968;-81
2022/04/08 11:05:19;;;;;;;1.02;0.78;;;;;;;12.66;58.97;98373.91;2952115;80;21065;-81
2022/04/08 11:09:20;;;;;;;3.15;0.95;;;;;;;12.62;58.06;98363.78;2953584;80;21034;-81
2022/04/08 11:13:21;;;;;;;1.55;1.02;;;;;;;12.77;58.13;98363.26;2944400;80;21007;-80
2022/04/08 11:17:22;;;;;;;3.15;0.90;;;;;;;12.60;54.83;98365.33;2909755;80;21935;-81
2022/04/08 11:21:24;;;;;;;6.75;1.12;;;;;;;12.45;55.44;98379.98;2950823;80;21055;-81
2022/04/08 11:25:28;;;;;;;2.22;0.70;;;;;;;12.45;55.31;98381.84;2914875;80;21023;-81
2022/04/08 11:29:29;;;;;;;2.10;1.37;;;;;;;12.56;56.10;98372.86;2917591;80;21610;-81
2022/04/08 11:33:31;;;;;;;1.27;1.00;;;;;;;12.54;54.11;98351.38;2931803;80;21031;-81
2022/04/08 11:37:32;;;;;;;1.70;1.15;;;;;;;12.73;56.83;98354.47;2936123;80;21039;-80
2022/04/08 11:41:35;;;;;;;2.35;1.05;;;;;;;12.89;54.59;98358.25;2942787;80;21101;-81
2022/04/08 11:45:37;;;;;;;2.33;0.98;;;;;;;13.15;55.58;98359.55;2941595;80;21038;-81
2022/04/08 11:49:39;;;;;;;1.05;0.80;;;;;;;13.24;52.08;98365.09;2956286;80;21010;-81
2022/04/08 11:53:49;;;;;;;1.32;0.90;;;;;;;13.27;53.73;98362.05;2954281;80;21018;-81
2022/04/08 11:57:51;;;;;;;1.62;1.15;;;;;;;13.12;51.18;98350.09;2948433;80;21582;-81
2022/04/08 12:01:59;;;;;;;1.10;0.57;;;;;;;13.18;53.66;98339.66;2963160;80;21030;-81
2022/04/08 12:06:01;;;;;;;2.70;0.82;;;;;;;13.28;53.51;98351.67;2959065;80;21157;-81
2022/04/08 12:10:03;;;;;;;1.17;0.72;;;;;;;13.29;52.52;98323.95;2960060;80;20999;-81
2022/04/08 12:14:08;;;;;;;1.70;0.90;;;;;;;13.24;51.77;98329.55;2962872;80;21408;-81
2022/04/08 12:18:10;;;;;;;1.77;0.80;;;;;;;13.09;52.00;98332.29;2956595;79;21062;-81
2022/04/08 12:22:14;;;;;;;0.80;0.65;;;;;;;13.07;53.14;98324.98;2956566;80;21062;-81
2022/04/08 12:26:16;;;;;;;2.55;0.90;;;;;;;13.22;53.95;98332.92;2956149;80;20987;-81
2022/04/08 12:30:21;;;;;;;1.82;0.90;;;;;;;13.34;53.87;98337.23;2950234;80;21002;-81
2022/04/08 12:34:22;;;;;;;0.88;0.82;;;;;;;13.36;51.39;98322.69;2953798;80;21027;-81
2022/04/08 12:38:24;;;;;;;1.50;1.27;;;;;;;13.36;52.97;98328.03;2955903;80;21044;-81
2022/04/08 12:42:25;;;;;;;1.20;1.00;;;;;;;13.40;52.13;98325.81;2960680;80;20999;-81
2022/04/08 12:46:28;;;;;;;2.98;0.80;;;;;;;13.26;50.55;98303.48;2916446;80;20999;-81
2022/04/08 12:50:29;;;;;;;1.42;0.90;;;;;;;13.30;51.95;98312.78;2938812;80;21582;-81
2022/04/08 12:54:30;;;;;;;1.90;1.02;;;;;;;13.41;53.76;98324.79;2910117;80;21562;-81
2022/04/08 12:58:32;;;;;;;4.87;1.47;;;;;;;13.40;50.59;98314.60;2926689;80;21031;-81
2022/04/08 13:02:33;;;;;;;7.70;1.65;;;;;;;13.36;50.68;98309.83;2938903;80;21007;-81
2022/04/08 13:10:35;;;;;;;3.65;1.17;;;;;;;13.14;50.93;98297.34;3157705;73;22208;-82
2022/04/08 13:14:37;;;;;;;0.65;0.60;;;;;;;13.16;51.92;98293.13;3005270;77;21005;-87
2022/04/08 13:18:38;;;;;;;3.52;1.05;;;;;;;13.36;50.20;98288.47;2997591;77;21074;-81
2022/04/08 13:22:39;;;;;;;3.55;1.27;;;;;;;13.51;49.34;98277.75;3025631;77;21058;-83
2022/04/08 13:26:40;;;;;;;3.72;1.37;;;;;;;13.57;49.65;98271.62;3026145;76;21058;-83
2022/04/08 13:30:43;;;;;;;3.15;2.05;;;;;;;13.69;50.22;98267.39;3025713;77;20995;-82
2022/04/08 13:34:46;;;;;;;4.03;1.52;;;;;;;13.62;51.64;98266.51;3025796;77;21014;-82
2022/04/08 13:38:47;;;;;;;4.10;1.95;;;;;;;13.52;51.30;98256.17;2996607;77;21015;-82
2022/04/08 13:42:48;;;;;;;2.02;1.87;;;;;;;13.48;52.53;98248.23;3026034;77;21054;-82
2022/04/08 13:46:50;;;;;;;9.20;1.98;;;;;;;13.41;50.68;98246.81;3024953;76;21109;-82
2022/04/08 13:50:51;;;;;;;3.80;2.17;;;;;;;13.18;50.27;98240.40;3026057;77;21031;-82
2022/04/08 13:54:53;;;;;;;2.90;1.70;;;;;;;13.20;51.22;98237.02;3019177;77;21003;-83
2022/04/08 13:58:54;;;;;;;2.35;2.02;;;;;;;13.15;51.45;98240.76;3022458;76;21020;-82
2022/04/08 14:02:56;;;;;;;6.97;2.20;;;;;;;13.12;51.80;98236.65;2992357;77;21617;-83
2022/04/08 14:06:59;;;;;;;6.67;2.10;;;;;;;13.14;52.30;98239.95;3004116;77;20975;-83
2022/04/08 14:11:02;;;;;;;3.92;2.02;;;;;;;13.13;50.78;98239.63;2941986;78;21580;-82
2022/04/08 14:15:04;;;;;;;3.55;2.08;;;;;;;13.13;51.87;98238.80;2935211;79;21006;-82
2022/04/08 14:19:05;;;;;;;2.55;1.40;;;;;;;13.05;53.12;98248.28;2941442;78;21006;-82
2022/04/08 14:23:06;;;;;;;1.77;1.52;;;;;;;13.08;52.40;98241.22;2952620;78;20998;-82
2022/04/08 14:27:07;;;;;;;2.20;1.25;;;;;;;13.25;50.28;98241.76;2971449;78;20974;-82
2022/04/08 14:31:09;;;;;;;2.25;1.80;;;;;;;13.26;51.53;98244.25;2972391;78;20986;-82
2022/04/08 14:35:11;;;;;;;1.60;1.37;;;;;;;13.09;50.93;98229.03;2954505;79;21446;-84
2022/04/08 14:39:12;;;;;;;3.55;2.00;;;;;;;13.03;54.51;98246.31;2968103;78;21025;-84
2022/04/08 14:43:13;;;;;;;9.10;2.35;;;;;;;13.00;54.80;98245.69;2969995;78;21517;-84
2022/04/08 14:47:14;;;;;;;1.92;1.35;;;;;;;12.74;50.47;98244.09;2961290;78;21038;-85
2022/04/08 14:51:17;;;;;;;3.35;1.87;;;;;;;12.65;52.49;98246.89;2971079;78;21021;-82
2022/04/08 14:55:18;;;;;;;4.42;2.35;;;;;;;12.51;52.86;98253.09;2951398;79;21568;-82
2022/04/08 14:59:19;;;;;;;1.67;1.57;;;;;;;12.51;53.28;98253.09;2952006;78;21025;-87
2022/04/08 15:03:20;;;;;;;4.35;2.20;;;;;;;12.47;53.52;98244.62;2942834;77;21021;-83
2022/04/08 15:07:22;;;;;;;6.33;1.87;;;;;;;12.47;53.19;98239.81;2958488;77;20978;-85
2022/04/08 15:11:23;;;;;;;5.95;1.65;;;;;;;12.46;54.42;98245.64;2953002;79;20959;-83
2022/04/08 15:15:24;;;;;;;5.70;2.90;;;;;;;12.40;54.61;98256.58;2964880;79;21065;-82
2022/04/08 15:19:25;;;;;;;3.67;2.05;;;;;;;12.49;56.58;98281.78;2956717;77;21282;-83
2022/04/08 15:23:26;;;;;;;10.60;2.90;;;;;;;12.21;58.57;98286.48;2955140;78;21037;-82
2022/04/08 15:27:28;;;;;;;3.12;2.10;;;;;;;11.97;60.56;98293.70;2955168;78;21012;-83
2022/04/08 15:31:29;;;;;;;2.52;2.33;;;;;;;11.73;62.01;98287.64;2970359;78;21040;-83
2022/04/08 15:35:35;;;;;;;2.33;2.05;;;;;;;11.54;62.89;98288.48;2970685;78;20994;-83
2022/04/08 15:39:33;;;;;;;4.00;2.10;;;;;;;11.38;62.32;98296.13;2968124;78;21036;-83
2022/04/08 15:43:34;;;;;;;4.87;2.52;;;;;;;11.23;61.18;98301.91;2969399;78;21040;-83
2022/04/08 15:47:35;;;;;;;6.75;2.25;;;;;;;11.08;61.10;98302.67;2970366;78;20986;-83
2022/04/08 15:51:40;;;;;;;8.35;3.55;;;;;;;11.02;62.63;98311.38;2970020;78;21009;-83
2022/04/08 15:55:45;;;;;;;3.58;1.98;;;;;;;10.90;62.87;98304.80;2969156;78;20993;-83
2022/04/08 15:59:44;;;;;;;3.77;2.05;;;;;;;10.83;63.52;98297.54;2967554;78;20974;-84
2022/04/08 16:03:45;;;;;;;2.10;1.40;;;;;;;10.65;63.39;98307.13;2969889;78;21021;-83
2022/04/08 16:07:48;;;;;;;3.05;1.62;;;;;;;10.50;63.21;98298.23;2969544;78;21053;-83
2022/04/08 16:11:49;;;;;;;1.37;1.20;;;;;;;10.43;62.86;98304.75;2963097;78;21556;-83
2022/04/08 16:15:50;;;;;;;1.85;1.40;;;;;;;10.41;63.46;98304.91;2975315;78;21640;-83
2022/04/08 16:19:51;;;;;;;1.98;1.50;;;;;;;10.43;62.44;98300.77;2935960;78;20962;-83
2022/04/08 16:23:53;;;;;;;2.52;2.05;;;;;;;10.47;63.13;98307.90;2967970;78;21089;-82
2022/04/08 16:27:54;;;;;;;1.77;0.70;;;;;;;10.42;61.50;98313.23;2968364;78;21362;-82
2022/04/08 16:31:55;;;;;;;4.05;2.50;;;;;;;10.40;62.73;98310.38;2970022;78;21509;-81
2022/04/08 16:35:56;;;;;;;6.08;2.25;;;;;;;10.40;63.43;98309.89;2969709;78;21057;-84
2022/04/08 16:39:57;;;;;;;4.58;3.12;;;;;;;10.27;64.87;98309.09;2969363;78;21021;-84
2022/04/08 16:43:58;;;;;;;2.85;2.35;;;;;;;10.07;66.20;98307.36;2953161;78;20986;-84
2022/04/08 16:47:59;;;;;;;1.87;1.72;;;;;;;9.91;67.41;98308.22;2952830;78;21041;-83
2022/04/08 16:52:02;;;;;;;3.72;2.75;;;;;;;9.85;68.89;98299.13;2978802;78;21561;-83
2022/04/08 16:56:06;;;;;;;3.02;2.08;;;;;;;9.74;69.65;98292.02;2974764;77;21057;-83
2022/04/08 17:00:11;;;;;;;4.70;2.22;;;;;;;9.57;69.29;98286.23;2959156;78;21080;-82
2022/04/08 17:04:12;;;;;;;2.47;1.20;;;;;;;9.50;68.45;98293.22;2954965;78;21006;-83
2022/04/08 17:08:13;;;;;;;1.00;0.80;;;;;;;9.33;70.36;98309.63;2957789;78;21024;-82
2022/04/08 17:12:14;;;;;;;2.62;1.00;;;;;;;9.18;72.00;98302.03;3012649;77;21479;-82
2022/04/08 17:16:15;;;;;;;2.35;1.22;;;;;;;9.06;72.29;98295.72;3015075;77;21521;-82
2022/04/08 17:20:16;;;;;;;2.67;1.32;;;;;;;9.02;72.59;98290.89;3027769;77;20989;-82
2022/04/08 17:24:17;;;;;;;1.77;1.60;;;;;;;8.97;72.74;98284.27;2977084;77;21014;-82
2022/04/08 17:28:19;;;;;;;1.65;1.55;;;;;;;8.90;73.23;98278.46;3004819;77;20953;-81
2022/04/08 17:32:21;;;;;;;4.72;2.12;;;;;;;8.88;73.78;98268.52;2993799;78;20987;-82
2022/04/08 17:36:22;;;;;;;2.75;2.55;;;;;;;8.83;74.38;98259.24;3010176;77;21035;-82
2022/04/08 17:40:25;;;;;;;3.27;2.52;;;;;;;8.78;74.91;98251.44;3004437;77;21542;-82
2022/04/08 17:44:30;;;;;;;2.47;2.15;;;;;;;8.75;74.91;98251.78;3008565;77;21078;-82
2022/04/08 17:48:31;;;;;;;3.83;2.80;;;;;;;8.71;74.66;98253.44;3009926;77;21016;-81
2022/04/08 17:52:32;;;;;;;3.72;1.87;;;;;;;8.73;73.92;98255.91;3010004;77;20972;-82
2022/04/08 17:56:34;;;;;;;5.65;4.40;;;;;;;8.69;73.90;98245.30;3005226;77;21027;-82
2022/04/08 18:00:36;;;;;;;4.10;2.80;;;;;;;8.69;73.22;98238.20;3002141;77;21047;-82
2022/04/08 18:04:38;;;;;;;4.72;3.10;;;;;;;8.58;74.18;98249.10;3006707;77;21011;-82
2022/04/08 18:08:39;;;;;;;7.28;2.75;;;;;;;8.57;74.77;98262.02;2977484;77;21033;-82
2022/04/08 18:12:41;;;;;;;3.50;2.27;;;;;;;8.55;74.64;98260.88;2952931;80;20994;-82
2022/04/08 18:16:43;;;;;;;4.47;1.87;;;;;;;8.50;74.65;98254.40;2961809;78;21018;-83
2022/04/08 18:20:44;;;;;;;2.17;1.80;;;;;;;8.46;73.92;98262.31;2962476;78;21018;-83
2022/04/08 18:24:45;;;;;;;6.55;2.55;;;;;;;8.46;74.55;98263.64;2962370;78;21103;-83
2022/04/08 18:28:48;;;;;;;3.08;2.62;;;;;;;8.47;74.03;98266.11;2978484;78;21518;-84
2022/04/08 18:32:49;;;;;;;3.50;2.30;;;;;;;8.46;74.82;98270.27;2948036;78;21046;-83
2022/04/08 18:36:50;;;;;;;4.67;3.30;;;;;;;8.47;75.10;98279.87;3009035;78;21017;-84
2022/04/08 18:40:52;;;;;;;2.65;2.45;;;;;;;8.53;74.77;98271.29;3001923;78;21021;-83
2022/04/08 18:44:55;;;;;;;4.28;2.70;;;;;;;8.53;74.44;98268.13;2960960;80;21010;-83
2022/04/08 18:48:56;;;;;;;7.17;3.27;;;;;;;8.59;75.19;98267.98;2971972;78;21027;-84
2022/04/08 18:52:57;;;;;;;6.08;4.22;;;;;;;8.65;73.85;98255.42;2976437;78;20966;-84
2022/04/08 18:56:58;;;;;;;7.15;4.40;;;;;;;8.75;72.39;98255.75;2967362;78;20987;-83
2022/04/08 19:01:02;;;;;;;13.60;9.20;;;;;;;8.71;73.14;98248.13;3006995;77;21044;-82
2022/04/08 19:05:05;;;;;;;7.65;4.70;;;;;;;8.74;71.83;98239.52;3018272;78;21028;-85
2022/04/08 19:09:06;;;;;;;7.40;5.17;;;;;;;8.73;70.77;98243.98;3009484;78;21592;-84